createdAt,value
2023-04-08T00:01:02.844Z,17.92
2023-04-08T00:03:31.026Z,18.92
2023-04-08T00:05:58.362Z,22.88
2023-04-08T00:08:25.458Z,19.73
2023-04-08T00:10:52.596Z,20.20
2023-04-08T00:13:19.697Z,21.25
2023-04-08T00:15:47.058Z,22.25
2023-04-08T00:18:17.784Z,23.20
2023-04-08T00:20:45.294Z,20.63
2023-04-08T00:23:12.492Z,22.75
2023-04-08T00:25:39.595Z,21.35
2023-04-08T00:28:06.894Z,22.25
2023-04-08T00:30:34.016Z,21.08
2023-04-08T00:33:02.090Z,20.60
2023-04-08T00:35:29.347Z,21.00
2023-04-08T00:37:56.464Z,21.13
2023-04-08T00:40:23.609Z,21.35
2023-04-08T00:42:50.655Z,18.13
2023-04-08T00:45:17.757Z,18.48
2023-04-08T00:47:45.093Z,21.85
2023-04-08T00:50:12.467Z,22.05
2023-04-08T00:52:39.715Z,21.13
2023-04-08T00:55:07.436Z,22.60
2023-04-08T00:57:34.788Z,17.50
2023-04-08T01:00:02.241Z,20.27
2023-04-08T01:02:29.503Z,16.98
2023-04-08T01:05:05.704Z,17.10
2023-04-08T01:07:38.404Z,17.25
2023-04-08T01:10:15.875Z,22.50
2023-04-08T01:12:54.244Z,24.20
2023-04-08T01:15:22.522Z,25.75
2023-04-08T01:17:53.402Z,26.40
2023-04-08T01:20:21.221Z,24.90
2023-04-08T01:23:09.360Z,23.52
2023-04-08T01:25:38.345Z,22.13
2023-04-08T01:28:11.648Z,23.23
2023-04-08T01:30:40.839Z,20.67
2023-04-08T01:33:10.699Z,22.77
2023-04-08T01:35:38.432Z,23.63
2023-04-08T01:38:09.245Z,24.25
2023-04-08T01:40:39.329Z,23.30
2023-04-08T01:43:10.100Z,24.52
2023-04-08T01:45:37.199Z,23.98
2023-04-08T01:48:05.953Z,23.90
2023-04-08T01:50:34.005Z,24.35
2023-04-08T01:53:04.547Z,24.17
2023-04-08T01:55:33.527Z,25.38
2023-04-08T01:58:05.953Z,23.85
2023-04-08T02:00:36.173Z,22.90
2023-04-08T02:03:06.195Z,22.63
2023-04-08T02:05:34.577Z,23.17
2023-04-08T02:08:06.940Z,23.92
2023-04-08T02:10:34.058Z,22.10
2023-04-08T02:13:03.550Z,22.63
2023-04-08T02:15:35.349Z,24.48
2023-04-08T02:18:16.848Z,24.27
2023-04-08T02:20:48.081Z,23.13
2023-04-08T02:23:27.873Z,19.58
2023-04-08T02:25:57.021Z,18.13
2023-04-08T02:28:26.116Z,21.70
2023-04-08T02:30:54.906Z,19.85
2023-04-08T02:33:23.538Z,20.35
2023-04-08T02:35:55.056Z,20.45
2023-04-08T02:38:24.390Z,19.85
2023-04-08T02:40:51.815Z,22.35
2023-04-08T02:43:19.015Z,19.13
2023-04-08T02:45:46.669Z,19.65
2023-04-08T02:48:15.248Z,21.25
2023-04-08T02:50:42.392Z,19.63
2023-04-08T02:53:09.944Z,20.60
2023-04-08T02:55:37.095Z,23.92
2023-04-08T02:58:05.628Z,22.30
2023-04-08T03:00:32.782Z,21.08
2023-04-08T03:03:00.420Z,21.70
2023-04-08T03:05:27.852Z,21.25
2023-04-08T03:07:54.990Z,20.00
2023-04-08T03:10:22.107Z,20.85
2023-04-08T03:12:49.340Z,24.65
2023-04-08T03:15:16.491Z,21.58
2023-04-08T03:17:43.783Z,22.27
2023-04-08T03:20:11.612Z,21.90
2023-04-08T03:22:38.772Z,21.67
2023-04-08T03:25:06.634Z,24.73
2023-04-08T03:27:33.771Z,23.40
2023-04-08T03:30:01.257Z,21.98
2023-04-08T03:32:28.514Z,24.60
2023-04-08T03:34:55.679Z,23.30
2023-04-08T03:37:22.891Z,22.15
2023-04-08T03:39:51.623Z,25.48
2023-04-08T03:42:18.820Z,24.10
2023-04-08T03:44:45.869Z,24.98
2023-04-08T03:47:13.070Z,21.35
2023-04-08T03:49:40.264Z,22.67
2023-04-08T03:52:07.577Z,24.25
2023-04-08T03:54:34.619Z,24.10
2023-04-08T03:57:03.177Z,23.63
2023-04-08T03:59:30.395Z,23.33
2023-04-08T04:01:57.539Z,20.38
2023-04-08T04:04:26.035Z,20.45
2023-04-08T04:06:53.274Z,21.23
2023-04-08T04:09:20.579Z,20.65
2023-04-08T04:11:47.677Z,21.17
2023-04-08T04:14:14.979Z,20.27
2023-04-08T04:16:42.184Z,19.35
2023-04-08T04:19:09.277Z,19.30
2023-04-08T04:21:36.424Z,18.55
2023-04-08T04:24:03.674Z,17.58
2023-04-08T04:26:30.779Z,16.83
2023-04-08T04:28:57.886Z,15.98
2023-04-08T04:31:26.755Z,17.00
2023-04-08T04:33:54.759Z,20.30
2023-04-08T04:36:21.990Z,18.65
2023-04-08T04:38:50.642Z,19.20
2023-04-08T04:41:18.234Z,19.48
2023-04-08T04:43:45.426Z,20.00
2023-04-08T04:46:12.566Z,18.65
2023-04-08T04:48:39.833Z,18.30
2023-04-08T04:51:07.881Z,18.10
2023-04-08T04:53:35.099Z,18.30
2023-04-08T04:56:02.925Z,17.33
2023-04-08T04:58:31.042Z,18.15
2023-04-08T05:00:58.179Z,16.48
2023-04-08T05:03:25.389Z,16.58
2023-04-08T05:05:54.028Z,14.77
2023-04-08T05:08:21.884Z,17.48
2023-04-08T05:10:52.080Z,16.67
2023-04-08T05:13:19.540Z,15.73
2023-04-08T05:15:46.995Z,15.00
2023-04-08T05:18:14.492Z,15.65
2023-04-08T05:20:41.578Z,15.98
2023-04-08T05:23:09.129Z,16.52
2023-04-08T05:25:36.648Z,16.77
2023-04-08T05:28:04.467Z,15.38
2023-04-08T05:30:31.719Z,14.65
2023-04-08T05:33:00.568Z,13.63
2023-04-08T05:35:28.852Z,14.20
2023-04-08T05:37:56.328Z,14.02
2023-04-08T05:40:23.536Z,14.32
2023-04-08T05:42:50.638Z,13.88
2023-04-08T05:45:17.788Z,14.55
2023-04-08T05:47:45.076Z,12.65
2023-04-08T05:50:12.554Z,16.08
2023-04-08T05:52:45.008Z,15.82
2023-04-08T05:55:13.302Z,15.57
2023-04-08T05:57:41.120Z,15.00
2023-04-08T06:00:10.302Z,14.90
2023-04-08T06:02:37.759Z,17.65
2023-04-08T06:05:06.056Z,16.58
2023-04-08T06:07:34.321Z,16.90
2023-04-08T06:10:01.672Z,17.15
2023-04-08T06:12:29.215Z,15.70
2023-04-08T06:14:56.851Z,14.30
2023-04-08T06:17:24.133Z,16.88
2023-04-08T06:19:51.387Z,15.38
2023-04-08T06:22:18.415Z,16.25
2023-04-08T06:24:47.932Z,15.07
2023-04-08T06:27:15.592Z,16.13
2023-04-08T06:29:43.224Z,15.52
2023-04-08T06:32:10.900Z,15.57
2023-04-08T06:34:38.405Z,17.35
2023-04-08T06:37:06.620Z,16.33
2023-04-08T06:39:34.182Z,15.27
2023-04-08T06:42:01.854Z,15.18
2023-04-08T06:44:28.999Z,14.52
2023-04-08T06:46:56.377Z,14.55
2023-04-08T06:49:23.629Z,15.98
2023-04-08T06:51:51.280Z,15.75
2023-04-08T06:54:18.378Z,16.63
2023-04-08T06:56:45.742Z,15.95
2023-04-08T06:59:12.831Z,16.63
2023-04-08T07:01:40.202Z,15.70
2023-04-08T07:04:07.475Z,17.20
2023-04-08T07:06:34.716Z,17.45
2023-04-08T07:09:05.679Z,7.82
2023-04-08T07:11:32.793Z,7.15
2023-04-08T07:14:00.101Z,13.15
2023-04-08T07:16:27.502Z,15.88
2023-04-08T07:18:54.685Z,11.10
2023-04-08T07:21:21.718Z,16.55
2023-04-08T07:23:48.853Z,16.25
2023-04-08T07:26:16.030Z,17.23
2023-04-08T07:28:43.385Z,11.80
2023-04-08T07:31:16.617Z,12.20
2023-04-08T07:33:44.597Z,15.20
2023-04-08T07:36:12.922Z,12.73
2023-04-08T07:38:41.153Z,13.88
2023-04-08T07:41:08.403Z,16.27
2023-04-08T07:43:37.530Z,16.02
2023-04-08T07:46:08.142Z,17.23
2023-04-08T07:48:35.940Z,16.60
2023-04-08T07:51:11.103Z,15.07
2023-04-08T07:53:39.711Z,18.08
2023-04-08T07:56:16.535Z,17.35
2023-04-08T07:58:43.957Z,17.02
2023-04-08T08:01:22.693Z,17.52
2023-04-08T08:03:51.265Z,15.77
2023-04-08T08:06:18.870Z,18.10
2023-04-08T08:08:46.008Z,13.95
2023-04-08T08:11:13.441Z,16.98
2023-04-08T08:13:40.729Z,15.27
